createdAt,value
2022-12-25T00:00:06.281Z,100433.75
2022-12-25T00:02:33.150Z,100436.31
2022-12-25T00:04:59.785Z,100425.56
2022-12-25T00:07:26.411Z,100421.97
2022-12-25T00:09:52.982Z,100420.19
2022-12-25T00:12:20.981Z,100416.72
2022-12-25T00:14:47.543Z,100408.81
2022-12-25T00:17:14.371Z,100410.22
2022-12-25T00:19:40.947Z,100423.53
2022-12-25T00:22:07.484Z,100424.06
2022-12-25T00:24:34.026Z,100428.25
2022-12-25T00:27:00.598Z,100438.53
2022-12-25T00:29:27.282Z,100435.38
2022-12-25T00:31:53.882Z,100436.28
2022-12-25T00:34:20.530Z,100431.44
2022-12-25T00:36:50.622Z,100422.88
2022-12-25T00:39:17.242Z,100427.94
2022-12-25T00:42:02.128Z,100443.78
2022-12-25T00:44:28.695Z,100443.41
2022-12-25T00:46:55.257Z,100433.03
2022-12-25T00:49:23.834Z,100430.47
2022-12-25T00:51:51.419Z,100421.69
2022-12-25T00:54:18.862Z,100424.88
2022-12-25T00:56:45.619Z,100427.78
2022-12-25T00:59:13.031Z,100417.41
2022-12-25T01:01:40.331Z,100418.53
2022-12-25T01:04:08.782Z,100423.31
2022-12-25T01:06:35.316Z,100422.81
2022-12-25T01:09:20.341Z,100426.69
2022-12-25T01:11:46.865Z,100428.81
2022-12-25T01:14:13.606Z,100430.50
2022-12-25T01:16:40.223Z,100439.22
2022-12-25T01:19:06.825Z,100438.03
2022-12-25T01:21:33.377Z,100433.19
2022-12-25T01:23:59.920Z,100438.44
2022-12-25T01:26:27.226Z,100432.28
2022-12-25T01:28:53.837Z,100430.78
2022-12-25T01:31:24.117Z,100431.09
2022-12-25T01:33:51.123Z,100437.47
2022-12-25T01:36:25.543Z,100442.38
2022-12-25T01:38:53.624Z,100449.16
2022-12-25T01:41:23.568Z,100466.91
2022-12-25T01:44:37.624Z,100466.44
2022-12-25T01:47:06.069Z,100468.13
2022-12-25T01:49:36.376Z,100481.25
2022-12-25T01:52:10.684Z,100476.47
2022-12-25T01:54:46.406Z,100481.38
2022-12-25T01:57:19.073Z,100480.91
2022-12-25T01:59:46.479Z,100474.44
2022-12-25T02:02:13.306Z,100463.34
2022-12-25T02:04:50.588Z,100471.44
2022-12-25T02:07:20.465Z,100474.31
2022-12-25T02:09:47.751Z,100469.44
2022-12-25T02:12:26.944Z,100469.06
2022-12-25T02:15:04.641Z,100476.09
2022-12-25T02:17:38.067Z,100470.41
2022-12-25T02:20:26.246Z,100483.50
2022-12-25T02:23:01.838Z,100480.31
2022-12-25T02:25:49.966Z,100489.44
2022-12-25T02:28:32.439Z,100485.41
2022-12-25T02:31:12.485Z,100480.47
2022-12-25T02:34:04.082Z,100486.81
2022-12-25T02:36:45.400Z,100491.16
2022-12-25T02:39:46.387Z,100483.66
2022-12-25T02:42:21.536Z,100483.03
2022-12-25T02:45:09.571Z,100481.03
2022-12-25T02:47:55.300Z,100479.56
2022-12-25T02:50:42.760Z,100482.13
2022-12-25T02:53:28.420Z,100494.44
2022-12-25T02:56:15.246Z,100494.47
2022-12-25T02:59:02.619Z,100495.81
2022-12-25T03:01:52.285Z,100505.03
2022-12-25T03:04:40.220Z,100502.44
2022-12-25T03:07:17.638Z,100488.78
2022-12-25T03:10:09.747Z,100488.78
2022-12-25T03:12:53.630Z,100498.28
2022-12-25T03:15:39.527Z,100490.72
2022-12-25T03:18:12.023Z,100488.22
2022-12-25T03:20:57.685Z,100489.75
2022-12-25T03:23:48.147Z,100486.84
2022-12-25T03:26:33.318Z,100483.50
2022-12-25T03:28:59.837Z,100489.56
2022-12-25T03:31:50.178Z,100487.22
2022-12-25T03:34:52.294Z,100492.44
2022-12-25T03:37:30.502Z,100494.56
2022-12-25T03:40:18.698Z,100484.91
2022-12-25T03:43:13.478Z,100493.47
2022-12-25T03:46:03.924Z,100500.72
2022-12-25T03:48:52.668Z,100498.25
2022-12-25T03:51:44.574Z,100497.09
2022-12-25T03:54:31.590Z,100502.69
2022-12-25T03:57:16.839Z,100510.63
2022-12-25T04:00:01.788Z,100514.38
2022-12-25T04:02:46.518Z,100521.34
2022-12-25T04:05:31.740Z,100527.53
2022-12-25T04:08:18.527Z,100524.47
2022-12-25T04:11:03.897Z,100533.50
2022-12-25T04:13:49.182Z,100533.47
2022-12-25T04:16:34.540Z,100540.72
2022-12-25T04:19:19.488Z,100544.47
2022-12-25T04:22:04.219Z,100547.25
2022-12-25T04:24:49.149Z,100538.53
2022-12-25T04:27:34.655Z,100533.00
2022-12-25T04:30:19.377Z,100527.28
2022-12-25T04:33:04.205Z,100527.75
2022-12-25T04:35:49.594Z,100529.66
2022-12-25T04:38:20.771Z,100530.34
2022-12-25T04:40:47.420Z,100533.59
2022-12-25T04:43:14.005Z,100526.97
2022-12-25T04:45:40.512Z,100526.31
2022-12-25T04:48:07.019Z,100523.22
2022-12-25T04:50:33.550Z,100526.81
2022-12-25T04:53:00.041Z,100530.38
2022-12-25T04:55:26.572Z,100539.50
2022-12-25T04:57:53.093Z,100541.16
2022-12-25T05:00:19.941Z,100552.59
2022-12-25T05:02:46.669Z,100560.69
2022-12-25T05:05:13.336Z,100555.88
2022-12-25T05:07:39.878Z,100556.13
2022-12-25T05:10:07.086Z,100553.91
2022-12-25T05:12:33.664Z,100551.19
2022-12-25T05:15:00.287Z,100548.34
2022-12-25T05:17:27.053Z,100549.66
2022-12-25T05:19:53.571Z,100554.06
2022-12-25T05:22:20.128Z,100559.03
2022-12-25T05:24:46.657Z,100553.75
2022-12-25T05:27:14.021Z,100553.22
2022-12-25T05:29:40.520Z,100552.22
2022-12-25T05:32:07.259Z,100548.72
2022-12-25T05:34:33.755Z,100549.94
2022-12-25T05:37:00.326Z,100540.56
2022-12-25T05:39:26.849Z,100542.28
2022-12-25T05:41:53.386Z,100541.00
2022-12-25T05:44:19.896Z,100549.91
2022-12-25T05:46:46.506Z,100558.34
2022-12-25T05:49:13.187Z,100558.44
2022-12-25T05:51:39.780Z,100560.50
2022-12-25T05:54:06.391Z,100566.16
2022-12-25T05:56:33.135Z,100560.03
2022-12-25T05:58:59.664Z,100559.63
2022-12-25T06:01:28.271Z,100563.34
2022-12-25T06:03:55.097Z,100557.47
2022-12-25T06:06:21.667Z,100554.44
2022-12-25T06:08:48.250Z,100548.56
2022-12-25T06:11:15.675Z,100541.72
2022-12-25T06:13:42.699Z,100546.63
2022-12-25T06:16:11.248Z,100544.66
2022-12-25T06:18:40.130Z,100546.53
2022-12-25T06:21:11.471Z,100553.47
2022-12-25T06:23:38.620Z,100552.00
2022-12-25T06:26:10.986Z,100551.16
2022-12-25T06:28:38.036Z,100540.56
2022-12-25T06:31:10.292Z,100534.91
2022-12-25T06:33:37.409Z,100527.13
2022-12-25T06:36:16.250Z,100525.34
2022-12-25T06:38:43.345Z,100527.66
2022-12-25T06:41:18.482Z,100544.63
2022-12-25T06:43:53.014Z,100543.84
2022-12-25T06:46:20.667Z,100545.91
2022-12-25T06:48:50.461Z,100554.56
2022-12-25T06:51:24.918Z,100547.50
2022-12-25T06:53:52.689Z,100546.72
2022-12-25T06:56:22.282Z,100546.53
2022-12-25T06:58:51.443Z,100544.84
2022-12-25T07:01:23.567Z,100555.41
2022-12-25T07:03:53.359Z,100558.56
2022-12-25T07:06:19.806Z,100553.16
2022-12-25T07:08:46.331Z,100550.66
2022-12-25T07:11:13.090Z,100541.50
2022-12-25T07:13:39.694Z,100540.22
2022-12-25T07:16:07.823Z,100552.94
2022-12-25T07:18:34.737Z,100551.78
2022-12-25T07:21:10.158Z,100556.03
2022-12-25T07:23:36.789Z,100572.16
2022-12-25T07:26:03.754Z,100573.88
2022-12-25T07:28:31.176Z,100578.38
2022-12-25T07:31:06.356Z,100581.38
2022-12-25T07:33:33.965Z,100579.34
2022-12-25T07:36:00.921Z,100579.56
2022-12-25T07:38:27.717Z,100576.00
2022-12-25T07:40:54.256Z,100565.59
2022-12-25T07:43:20.896Z,100564.78
2022-12-25T07:45:47.542Z,100567.91
2022-12-25T07:48:16.901Z,100573.44
2022-12-25T07:50:43.785Z,100581.88
2022-12-25T07:53:10.349Z,100585.50
2022-12-25T07:55:36.906Z,100585.50
2022-12-25T07:58:03.458Z,100593.22
2022-12-25T08:00:33.675Z,100588.25
2022-12-25T08:03:00.439Z,100592.69
2022-12-25T08:05:27.203Z,100584.22
2022-12-25T08:07:57.798Z,100594.28
2022-12-25T08:10:24.900Z,100590.34
2022-12-25T08:12:52.093Z,100592.94
2022-12-25T08:15:18.692Z,100592.13
2022-12-25T08:17:45.317Z,100591.72
2022-12-25T08:20:12.206Z,100590.69
2022-12-25T08:22:38.742Z,100580.28
2022-12-25T08:25:05.382Z,100579.94
2022-12-25T08:27:32.082Z,100580.50
2022-12-25T08:29:58.617Z,100578.00
2022-12-25T08:32:25.465Z,100582.09
2022-12-25T08:34:52.009Z,100588.00
2022-12-25T08:37:18.582Z,100594.94
2022-12-25T08:39:45.150Z,100602.06
2022-12-25T08:42:11.676Z,100590.19
2022-12-25T08:44:38.210Z,100584.56
2022-12-25T08:47:04.940Z,100582.84
2022-12-25T08:49:31.923Z,100577.97
2022-12-25T08:51:58.716Z,100570.72
2022-12-25T08:54:25.306Z,100557.56
2022-12-25T08:56:53.338Z,100556.13
2022-12-25T08:59:21.646Z,100556.03
2022-12-25T09:01:48.363Z,100548.03
2022-12-25T09:04:15.053Z,100553.06
2022-12-25T09:06:41.597Z,100548.72
2022-12-25T09:09:08.156Z,100552.16
2022-12-25T09:11:34.704Z,100550.06
2022-12-25T09:14:01.225Z,100546.50
2022-12-25T09:16:28.121Z,100549.63
2022-12-25T09:18:56.734Z,100544.50
2022-12-25T09:21:23.276Z,100536.88
2022-12-25T09:23:50.062Z,100537.44
2022-12-25T09:26:18.091Z,100534.03
2022-12-25T09:28:50.664Z,100520.81
2022-12-25T09:31:17.767Z,100507.09
2022-12-25T09:33:44.333Z,100496.19
2022-12-25T09:36:10.952Z,100494.31
2022-12-25T09:38:37.619Z,100510.63
2022-12-25T09:41:17.134Z,100502.66
2022-12-25T09:43:51.480Z,100483.44
2022-12-25T09:46:23.334Z,100481.63
2022-12-25T09:49:06.115Z,100477.19
2022-12-25T09:51:35.733Z,100478.91
2022-12-25T09:54:04.999Z,100482.38
2022-12-25T09:56:33.310Z,100483.53
2022-12-25T09:58:59.942Z,100478.16
2022-12-25T10:01:29.285Z,100475.00
2022-12-25T10:04:11.272Z,100466.25
2022-12-25T10:06:55.766Z,100465.25
2022-12-25T10:09:31.471Z,100476.16
2022-12-25T10:12:00.640Z,100484.78
2022-12-25T10:14:30.230Z,100491.81
2022-12-25T10:16:56.621Z,100487.00
2022-12-25T10:19:58.645Z,100489.47
2022-12-25T10:22:48.485Z,100472.47
2022-12-25T10:25:18.951Z,100456.75
2022-12-25T10:27:54.645Z,100467.59
2022-12-25T10:30:24.122Z,100467.81
2022-12-25T10:32:51.879Z,100459.09
2022-12-25T10:35:24.325Z,100449.19
2022-12-25T10:38:00.660Z,100440.91
2022-12-25T10:40:58.196Z,100439.97
2022-12-25T10:43:36.717Z,100448.19
2022-12-25T10:46:10.881Z,100442.75
2022-12-25T10:48:44.457Z,100442.50
2022-12-25T10:51:11.154Z,100446.47
2022-12-25T10:53:43.104Z,100446.00
2022-12-25T10:56:19.302Z,100448.03
2022-12-25T10:58:45.887Z,100437.53
2022-12-25T11:01:13.556Z,100431.44
2022-12-25T11:03:44.647Z,100430.81
2022-12-25T11:06:40.472Z,100428.56
2022-12-25T11:09:07.763Z,100416.75
2022-12-25T11:11:34.502Z,100410.22
2022-12-25T11:14:02.718Z,100401.59
2022-12-25T11:16:40.284Z,100416.75
2022-12-25T11:19:21.989Z,100438.59
2022-12-25T11:21:57.515Z,100434.72
2022-12-25T11:24:32.726Z,100436.34
2022-12-25T11:27:02.114Z,100434.53
2022-12-25T11:29:59.184Z,100416.88
2022-12-25T11:32:31.587Z,100413.78
2022-12-25T11:34:59.511Z,100410.84
2022-12-25T11:37:49.083Z,100405.41
2022-12-25T11:40:38.822Z,100376.53
2022-12-25T11:43:29.300Z,100361.53
2022-12-25T11:46:11.986Z,100362.97
2022-12-25T11:48:47.157Z,100358.84
2022-12-25T11:51:15.462Z,100350.47
2022-12-25T11:53:41.923Z,100351.31
2022-12-25T11:56:21.719Z,100349.53
2022-12-25T11:59:03.389Z,100334.75
2022-12-25T12:01:46.943Z,100323.84
2022-12-25T12:04:25.909Z,100319.56
2022-12-25T12:07:23.624Z,100315.22
2022-12-25T12:10:08.638Z,100303.47
2022-12-25T12:12:48.805Z,100297.44
2022-12-25T12:15:29.257Z,100297.09
2022-12-25T12:18:08.213Z,100297.63
2022-12-25T12:20:35.869Z,100295.44
2022-12-25T12:23:10.584Z,100279.38
2022-12-25T12:25:43.045Z,100282.94
2022-12-25T12:28:20.605Z,100281.50
2022-12-25T12:31:01.357Z,100283.03
2022-12-25T12:33:34.771Z,100286.06
2022-12-25T12:36:03.287Z,100281.56
2022-12-25T12:38:32.334Z,100270.94
2022-12-25T12:41:02.283Z,100266.25
2022-12-25T12:43:57.468Z,100258.44
2022-12-25T12:46:30.930Z,100239.75
2022-12-25T12:49:16.682Z,100240.88
2022-12-25T12:51:43.207Z,100236.06
2022-12-25T12:54:26.024Z,100251.63
2022-12-25T12:56:55.353Z,100237.69
2022-12-25T12:59:22.181Z,100215.91
2022-12-25T13:02:14.605Z,100211.69
2022-12-25T13:05:03.899Z,100212.97
2022-12-25T13:07:48.673Z,100195.44
2022-12-25T13:10:43.983Z,100192.41
2022-12-25T13:13:20.352Z,100186.00
2022-12-25T13:15:50.323Z,100201.09
2022-12-25T13:18:17.590Z,100217.19
2022-12-25T13:20:55.228Z,100224.75
2022-12-25T13:23:21.693Z,100222.81
2022-12-25T13:25:54.485Z,100241.03
2022-12-25T13:28:29.803Z,100241.28
2022-12-25T13:31:05.613Z,100244.88
2022-12-25T13:33:32.919Z,100232.88
2022-12-25T13:35:59.610Z,100244.97
2022-12-25T13:38:28.948Z,100259.84
2022-12-25T13:41:15.491Z,100264.13
2022-12-25T13:43:44.538Z,100253.31
2022-12-25T13:46:15.604Z,100252.78
2022-12-25T13:48:43.054Z,100250.69
2022-12-25T13:51:15.944Z,100254.91
2022-12-25T13:53:43.740Z,100249.16
2022-12-25T13:56:16.289Z,100242.44
2022-12-25T13:58:46.436Z,100245.09
2022-12-25T14:01:16.424Z,100235.66
2022-12-25T14:03:47.754Z,100237.09
2022-12-25T14:06:30.055Z,100234.16
2022-12-25T14:09:04.151Z,100250.13
2022-12-25T14:11:33.679Z,100255.47
2022-12-25T14:14:07.651Z,100258.19
2022-12-25T14:16:35.613Z,100249.28
2022-12-25T14:19:03.678Z,100228.84
2022-12-25T14:21:34.727Z,100226.47
2022-12-25T14:24:01.394Z,100219.00
2022-12-25T14:26:30.747Z,100217.31
2022-12-25T14:29:09.239Z,100217.22
2022-12-25T14:31:42.468Z,100217.38
2022-12-25T14:34:17.807Z,100213.31
2022-12-25T14:36:44.884Z,100220.53
2022-12-25T14:39:35.308Z,100212.63
2022-12-25T14:42:12.670Z,100212.38
2022-12-25T14:44:41.268Z,100205.97
2022-12-25T14:47:10.819Z,100194.84
2022-12-25T14:49:37.938Z,100197.69
2022-12-25T14:52:18.047Z,100187.91
2022-12-25T14:54:47.797Z,100187.22
2022-12-25T14:57:22.686Z,100188.13
2022-12-25T14:59:58.943Z,100178.88
2022-12-25T15:02:25.876Z,100179.63
2022-12-25T15:04:53.484Z,100186.25
2022-12-25T15:07:38.535Z,100182.97
2022-12-25T15:10:57.478Z,100182.19
2022-12-25T15:12:56.831Z,100186.63
2022-12-25T15:15:23.464Z,100181.44
2022-12-25T15:17:50.635Z,100171.66
2022-12-25T15:20:17.454Z,100153.38
2022-12-25T15:25:30.823Z,100140.22
2022-12-25T15:27:57.456Z,100145.31
2022-12-25T15:30:24.084Z,100141.75
2022-12-25T15:32:50.672Z,100139.09
2022-12-25T15:35:21.507Z,100133.69
2022-12-25T15:37:48.226Z,100141.47
2022-12-25T15:40:16.358Z,100139.72
2022-12-25T15:42:45.009Z,100134.59
2022-12-25T15:45:19.743Z,100134.22
2022-12-25T15:47:46.611Z,100115.56
2022-12-25T15:50:13.214Z,100116.50
2022-12-25T15:52:39.744Z,100123.53
2022-12-25T15:55:07.562Z,100134.28
2022-12-25T15:57:35.147Z,100129.19
2022-12-25T16:00:03.478Z,100131.44
2022-12-25T16:02:30.073Z,100136.72
2022-12-25T16:04:56.840Z,100137.41
2022-12-25T16:07:24.983Z,100119.16
2022-12-25T16:09:52.505Z,100123.47
2022-12-25T16:12:19.577Z,100113.38
2022-12-25T16:14:46.205Z,100094.00
2022-12-25T16:17:15.543Z,100094.09
2022-12-25T16:19:44.580Z,100101.06
2022-12-25T16:22:19.065Z,100095.84
2022-12-25T16:24:45.661Z,100088.38
2022-12-25T16:27:12.193Z,100096.56
2022-12-25T16:29:38.754Z,100103.53
2022-12-25T16:32:05.308Z,100103.59
2022-12-25T16:34:31.829Z,100087.56
2022-12-25T16:36:58.321Z,100090.31
2022-12-25T16:39:24.867Z,100095.41
2022-12-25T16:41:51.379Z,100100.38
2022-12-25T16:44:17.954Z,100101.97
2022-12-25T16:46:44.630Z,100114.69
2022-12-25T16:49:11.812Z,100119.53
2022-12-25T16:51:38.564Z,100121.50
2022-12-25T16:54:05.472Z,100104.66
2022-12-25T16:56:32.435Z,100107.28
2022-12-25T16:59:01.003Z,100091.53
2022-12-25T17:01:27.805Z,100077.50
2022-12-25T17:03:54.551Z,100075.88
2022-12-25T17:06:24.341Z,100067.94
2022-12-25T17:08:52.541Z,100051.84
2022-12-25T17:11:23.565Z,100047.53
2022-12-25T17:13:50.459Z,100030.72
2022-12-25T17:16:25.224Z,100015.94
2022-12-25T17:18:56.454Z,100022.19
2022-12-25T17:21:24.295Z,100029.31
2022-12-25T17:23:51.017Z,100019.41
2022-12-25T17:26:17.602Z,99999.84
2022-12-25T17:28:44.221Z,99996.72
2022-12-25T17:31:13.530Z,99988.13
2022-12-25T17:33:42.592Z,99981.91
2022-12-25T17:36:15.433Z,99972.38
2022-12-25T17:38:43.694Z,99978.50
2022-12-25T17:41:13.215Z,99977.03
2022-12-25T17:43:44.321Z,99976.25
2022-12-25T17:46:19.116Z,99968.00
2022-12-25T17:48:46.212Z,99957.38
2022-12-25T17:51:16.105Z,99949.81
2022-12-25T17:53:47.727Z,99958.00
2022-12-25T17:56:15.160Z,99946.47
2022-12-25T17:58:42.897Z,99936.56
2022-12-25T18:01:12.528Z,99945.97
2022-12-25T18:03:39.606Z,99950.78
2022-12-25T18:06:08.563Z,99945.41
2022-12-25T18:08:38.887Z,99943.34
2022-12-25T18:11:08.634Z,99949.38
2022-12-25T18:13:35.220Z,99953.97
2022-12-25T18:16:03.710Z,99945.22
2022-12-25T18:18:31.156Z,99944.47
2022-12-25T18:20:57.945Z,99935.91
2022-12-25T18:23:25.121Z,99943.63
2022-12-25T18:25:51.768Z,99932.50
2022-12-25T18:28:18.698Z,99930.91
2022-12-25T18:30:46.389Z,99927.44
2022-12-25T18:33:13.443Z,99920.66
2022-12-25T18:35:41.655Z,99918.69
2022-12-25T18:38:09.742Z,99923.97
2022-12-25T18:40:48.316Z,99920.00
2022-12-25T18:43:15.386Z,99914.34
2022-12-25T18:45:42.818Z,99918.09
2022-12-25T18:48:10.638Z,99917.34
2022-12-25T18:50:39.335Z,99915.25
2022-12-25T18:53:08.011Z,99914.13
2022-12-25T18:55:34.713Z,99919.22
2022-12-25T18:58:02.370Z,99931.38
2022-12-25T19:00:28.983Z,99926.75
2022-12-25T19:02:58.396Z,99924.97
2022-12-25T19:05:25.329Z,99923.00
2022-12-25T19:07:52.036Z,99918.09
2022-12-25T19:10:18.610Z,99921.41
2022-12-25T19:12:45.245Z,99932.13
2022-12-25T19:15:12.211Z,99934.00
2022-12-25T19:17:38.867Z,99937.50
2022-12-25T19:20:06.154Z,99923.56
2022-12-25T19:22:32.699Z,99926.19
2022-12-25T19:24:59.290Z,99928.16
2022-12-25T19:27:25.968Z,99924.88
2022-12-25T19:29:52.574Z,99906.78
2022-12-25T19:32:19.133Z,99903.50
2022-12-25T19:34:45.701Z,99905.91
2022-12-25T19:37:12.263Z,99902.03
2022-12-25T19:39:39.861Z,99906.97
2022-12-25T19:42:06.429Z,99903.69
2022-12-25T19:44:33.036Z,99907.91
2022-12-25T19:46:59.539Z,99912.50
2022-12-25T19:49:26.135Z,99901.72
2022-12-25T19:51:52.645Z,99903.13
2022-12-25T19:54:20.698Z,99896.25
2022-12-25T19:56:48.579Z,99900.81
2022-12-25T19:59:15.705Z,99895.31
2022-12-25T20:01:42.755Z,99888.66
2022-12-25T20:04:10.385Z,99881.69
2022-12-25T20:06:39.690Z,99884.34
2022-12-25T20:09:07.679Z,99882.44
2022-12-25T20:11:35.011Z,99882.22
2022-12-25T20:14:03.347Z,99877.38
2022-12-25T20:16:30.036Z,99882.13
2022-12-25T20:18:58.056Z,99879.72
2022-12-25T20:21:27.281Z,99877.56
2022-12-25T20:23:54.294Z,99867.56
2022-12-25T20:26:23.284Z,99871.22
2022-12-25T20:28:50.531Z,99881.81
2022-12-25T20:31:21.195Z,99868.81
2022-12-25T20:33:47.872Z,99877.38
2022-12-25T20:36:14.953Z,99878.63
2022-12-25T20:38:42.245Z,99880.41
2022-12-25T20:41:29.051Z,99879.59
2022-12-25T20:43:57.094Z,99875.00
2022-12-25T20:46:24.802Z,99877.03
2022-12-25T20:48:52.784Z,99880.28
2022-12-25T20:51:21.992Z,99878.94
2022-12-25T20:53:50.012Z,99875.63
2022-12-25T20:56:19.710Z,99867.84
2022-12-25T20:58:46.297Z,99869.50
2022-12-25T21:01:17.638Z,99866.13
2022-12-25T21:03:44.914Z,99861.28
2022-12-25T21:06:12.460Z,99859.09
2022-12-25T21:08:39.183Z,99856.53
2022-12-25T21:11:07.357Z,99855.59
2022-12-25T21:13:36.404Z,99854.03
2022-12-25T21:16:08.585Z,99856.53
2022-12-25T21:18:35.178Z,99862.75
2022-12-25T21:21:05.618Z,99862.13
2022-12-25T21:23:33.060Z,99862.88
2022-12-25T21:25:59.669Z,99861.72
2022-12-25T21:28:27.131Z,99855.69
2022-12-25T21:30:53.751Z,99856.34
2022-12-25T21:33:46.664Z,99851.16
2022-12-25T21:36:13.206Z,99859.00
2022-12-25T21:38:39.844Z,99851.06
2022-12-25T21:41:09.361Z,99849.28
2022-12-25T21:43:37.553Z,99842.06
2022-12-25T21:46:06.112Z,99838.94
2022-12-25T21:48:34.129Z,99837.13
2022-12-25T21:51:34.211Z,99834.47
2022-12-25T21:54:01.758Z,99839.84
2022-12-25T21:56:36.032Z,99840.50
2022-12-25T21:59:07.195Z,99847.16
2022-12-25T22:01:34.555Z,99855.28
2022-12-25T22:04:07.017Z,99843.66
2022-12-25T22:06:52.796Z,99850.53
2022-12-25T22:09:20.530Z,99846.31
2022-12-25T22:12:06.445Z,99847.78
2022-12-25T22:14:55.027Z,99849.34
2022-12-25T22:17:55.737Z,99862.47
2022-12-25T22:20:28.229Z,99854.38
2022-12-25T22:22:54.875Z,99847.47
2022-12-25T22:25:22.248Z,99856.28
2022-12-25T22:27:49.646Z,99848.78
2022-12-25T22:30:19.564Z,99842.88
2022-12-25T22:32:46.660Z,99848.34
2022-12-25T22:35:14.028Z,99840.28
2022-12-25T22:37:42.250Z,99834.63
2022-12-25T22:40:11.081Z,99841.31
2022-12-25T22:42:37.914Z,99847.16
2022-12-25T22:45:05.401Z,99833.84
2022-12-25T22:47:32.118Z,99846.81
2022-12-25T22:49:58.691Z,99843.66
2022-12-25T22:52:25.312Z,99839.94
2022-12-25T22:54:51.901Z,99838.22
2022-12-25T22:57:18.476Z,99838.94
2022-12-25T22:59:45.053Z,99836.00
2022-12-25T23:02:11.683Z,99835.38
2022-12-25T23:04:38.279Z,99843.19
2022-12-25T23:07:05.006Z,99845.81
2022-12-25T23:09:31.586Z,99844.56
2022-12-25T23:11:59.182Z,99839.44
2022-12-25T23:14:39.130Z,99833.66
2022-12-25T23:17:30.570Z,99830.66
2022-12-25T23:20:16.913Z,99838.94
2022-12-25T23:23:02.233Z,99847.88
2022-12-25T23:25:47.549Z,99855.78
2022-12-25T23:28:14.088Z,99849.81
2022-12-25T23:30:40.617Z,99855.00
2022-12-25T23:33:07.348Z,99860.34
2022-12-25T23:35:33.937Z,99858.03
2022-12-25T23:38:00.506Z,99856.19
2022-12-25T23:40:27.063Z,99845.72
2022-12-25T23:42:53.578Z,99845.66
2022-12-25T23:45:20.122Z,99849.84
2022-12-25T23:47:46.669Z,99846.28
2022-12-25T23:50:13.202Z,99857.81
2022-12-25T23:52:39.801Z,99854.91
2022-12-25T23:55:07.030Z,99852.44
2022-12-25T23:57:33.654Z,99838.94
